sensor_id;sensor_type;location;lat;lon;timestamp;P1;durP1;ratioP1;P2;durP2;ratioP2
23826;SDS011;12094;50.822;4.376;2023-02-15T00:00:11;71.43;;;35.83;;
23826;SDS011;12094;50.822;4.376;2023-02-15T00:02:39;77.97;;;37.70;;
23826;SDS011;12094;50.822;4.376;2023-02-15T00:05:08;75.70;;;36.67;;
23826;SDS011;12094;50.822;4.376;2023-02-15T00:07:35;75.00;;;36.97;;
23826;SDS011;12094;50.822;4.376;2023-02-15T00:10:02;75.13;;;36.60;;
23826;SDS011;12094;50.822;4.376;2023-02-15T00:12:30;70.88;;;36.90;;
23826;SDS011;12094;50.822;4.376;2023-02-15T00:15:00;72.20;;;36.55;;
23826;SDS011;12094;50.822;4.376;2023-02-15T00:17:28;76.22;;;36.22;;
23826;SDS011;12094;50.822;4.376;2023-02-15T00:19:55;76.35;;;36.28;;
23826;SDS011;12094;50.822;4.376;2023-02-15T00:22:25;71.55;;;35.45;;
23826;SDS011;12094;50.822;4.376;2023-02-15T00:24:55;72.38;;;35.47;;
23826;SDS011;12094;50.822;4.376;2023-02-15T00:27:21;75.97;;;35.97;;
23826;SDS011;12094;50.822;4.376;2023-02-15T00:29:48;70.22;;;35.03;;
23826;SDS011;12094;50.822;4.376;2023-02-15T00:32:15;71.22;;;34.88;;
23826;SDS011;12094;50.822;4.376;2023-02-15T00:34:42;77.40;;;35.72;;
23826;SDS011;12094;50.822;4.376;2023-02-15T00:37:09;77.10;;;36.75;;
23826;SDS011;12094;50.822;4.376;2023-02-15T00:39:37;70.13;;;35.70;;
23826;SDS011;12094;50.822;4.376;2023-02-15T00:42:04;74.97;;;35.42;;
23826;SDS011;12094;50.822;4.376;2023-02-15T00:44:31;74.30;;;36.35;;
23826;SDS011;12094;50.822;4.376;2023-02-15T00:46:58;77.03;;;34.85;;
23826;SDS011;12094;50.822;4.376;2023-02-15T00:49:25;77.95;;;36.13;;
23826;SDS011;12094;50.822;4.376;2023-02-15T00:51:52;73.20;;;36.53;;
23826;SDS011;12094;50.822;4.376;2023-02-15T00:54:20;76.00;;;36.10;;
23826;SDS011;12094;50.822;4.376;2023-02-15T00:56:47;77.70;;;35.97;;
23826;SDS011;12094;50.822;4.376;2023-02-15T00:59:15;74.47;;;35.03;;
23826;SDS011;12094;50.822;4.376;2023-02-15T01:01:41;77.25;;;34.58;;
23826;SDS011;12094;50.822;4.376;2023-02-15T01:04:09;74.50;;;36.15;;
23826;SDS011;12094;50.822;4.376;2023-02-15T01:09:10;80.30;;;35.42;;
23826;SDS011;12094;50.822;4.376;2023-02-15T01:11:38;77.30;;;36.78;;
23826;SDS011;12094;50.822;4.376;2023-02-15T01:14:05;77.40;;;37.13;;
23826;SDS011;12094;50.822;4.376;2023-02-15T01:16:37;75.28;;;37.17;;
23826;SDS011;12094;50.822;4.376;2023-02-15T01:19:04;73.85;;;36.45;;
23826;SDS011;12094;50.822;4.376;2023-02-15T01:21:32;81.70;;;37.17;;
23826;SDS011;12094;50.822;4.376;2023-02-15T01:24:01;77.97;;;36.80;;
23826;SDS011;12094;50.822;4.376;2023-02-15T01:26:29;77.35;;;36.72;;
23826;SDS011;12094;50.822;4.376;2023-02-15T01:28:57;80.50;;;36.08;;
23826;SDS011;12094;50.822;4.376;2023-02-15T01:31:26;75.38;;;35.80;;
23826;SDS011;12094;50.822;4.376;2023-02-15T01:33:53;70.88;;;35.28;;
23826;SDS011;12094;50.822;4.376;2023-02-15T01:36:21;70.65;;;34.67;;
23826;SDS011;12094;50.822;4.376;2023-02-15T01:38:48;74.10;;;34.97;;
23826;SDS011;12094;50.822;4.376;2023-02-15T01:41:15;67.97;;;33.35;;
23826;SDS011;12094;50.822;4.376;2023-02-15T01:43:59;74.68;;;33.80;;
23826;SDS011;12094;50.822;4.376;2023-02-15T01:46:35;66.50;;;34.10;;
23826;SDS011;12094;50.822;4.376;2023-02-15T01:51:45;69.00;;;34.25;;
23826;SDS011;12094;50.822;4.376;2023-02-15T01:54:19;68.90;;;34.05;;
23826;SDS011;12094;50.822;4.376;2023-02-15T01:56:57;65.43;;;33.25;;
23826;SDS011;12094;50.822;4.376;2023-02-15T01:59:30;67.22;;;34.03;;
23826;SDS011;12094;50.822;4.376;2023-02-15T02:02:02;75.50;;;36.85;;
23826;SDS011;12094;50.822;4.376;2023-02-15T02:04:33;71.70;;;35.10;;
23826;SDS011;12094;50.822;4.376;2023-02-15T02:07:07;68.20;;;34.35;;
23826;SDS011;12094;50.822;4.376;2023-02-15T02:09:37;68.60;;;34.00;;
23826;SDS011;12094;50.822;4.376;2023-02-15T02:12:04;68.93;;;34.28;;
23826;SDS011;12094;50.822;4.376;2023-02-15T02:14:31;70.93;;;33.10;;
23826;SDS011;12094;50.822;4.376;2023-02-15T02:23:23;68.88;;;34.10;;
23826;SDS011;12094;50.822;4.376;2023-02-15T02:26:16;62.78;;;33.75;;
23826;SDS011;12094;50.822;4.376;2023-02-15T02:31:40;67.03;;;33.53;;
23826;SDS011;12094;50.822;4.376;2023-02-15T02:34:41;62.75;;;33.40;;
23826;SDS011;12094;50.822;4.376;2023-02-15T02:37:21;64.97;;;33.78;;
23826;SDS011;12094;50.822;4.376;2023-02-15T02:40:03;72.93;;;34.53;;
23826;SDS011;12094;50.822;4.376;2023-02-15T02:43:08;72.10;;;34.67;;
23826;SDS011;12094;50.822;4.376;2023-02-15T02:45:42;65.30;;;34.40;;
23826;SDS011;12094;50.822;4.376;2023-02-15T02:48:15;64.90;;;34.67;;
23826;SDS011;12094;50.822;4.376;2023-02-15T02:50:48;69.47;;;35.03;;
23826;SDS011;12094;50.822;4.376;2023-02-15T02:53:15;72.25;;;36.13;;
23826;SDS011;12094;50.822;4.376;2023-02-15T02:56:03;73.78;;;35.58;;
23826;SDS011;12094;50.822;4.376;2023-02-15T03:01:32;71.53;;;34.90;;
23826;SDS011;12094;50.822;4.376;2023-02-15T03:04:08;70.88;;;34.40;;
23826;SDS011;12094;50.822;4.376;2023-02-15T03:06:48;69.95;;;35.00;;
23826;SDS011;12094;50.822;4.376;2023-02-15T03:09:33;68.05;;;35.17;;
23826;SDS011;12094;50.822;4.376;2023-02-15T03:12:14;72.80;;;34.85;;
23826;SDS011;12094;50.822;4.376;2023-02-15T03:14:56;69.93;;;35.17;;
23826;SDS011;12094;50.822;4.376;2023-02-15T03:17:37;71.10;;;35.58;;
23826;SDS011;12094;50.822;4.376;2023-02-15T03:20:30;68.97;;;34.28;;
23826;SDS011;12094;50.822;4.376;2023-02-15T03:23:04;78.75;;;35.63;;
23826;SDS011;12094;50.822;4.376;2023-02-15T03:25:40;68.20;;;35.15;;
23826;SDS011;12094;50.822;4.376;2023-02-15T03:28:11;72.32;;;37.20;;
23826;SDS011;12094;50.822;4.376;2023-02-15T03:30:43;72.90;;;36.42;;
23826;SDS011;12094;50.822;4.376;2023-02-15T03:33:16;70.22;;;36.15;;
23826;SDS011;12094;50.822;4.376;2023-02-15T03:38:18;73.95;;;36.72;;
23826;SDS011;12094;50.822;4.376;2023-02-15T03:40:51;74.75;;;35.42;;
23826;SDS011;12094;50.822;4.376;2023-02-15T03:43:40;66.70;;;35.08;;
23826;SDS011;12094;50.822;4.376;2023-02-15T03:46:15;74.60;;;36.17;;
23826;SDS011;12094;50.822;4.376;2023-02-15T03:48:51;73.75;;;36.70;;
23826;SDS011;12094;50.822;4.376;2023-02-15T03:51:21;72.82;;;36.30;;
23826;SDS011;12094;50.822;4.376;2023-02-15T03:54:02;70.72;;;35.58;;
23826;SDS011;12094;50.822;4.376;2023-02-15T03:56:41;69.72;;;34.65;;
23826;SDS011;12094;50.822;4.376;2023-02-15T03:59:29;68.97;;;35.30;;
23826;SDS011;12094;50.822;4.376;2023-02-15T04:02:22;73.25;;;35.50;;
23826;SDS011;12094;50.822;4.376;2023-02-15T04:04:54;71.30;;;35.58;;
23826;SDS011;12094;50.822;4.376;2023-02-15T04:07:21;64.28;;;33.67;;
23826;SDS011;12094;50.822;4.376;2023-02-15T04:09:48;64.88;;;33.58;;
23826;SDS011;12094;50.822;4.376;2023-02-15T04:12:38;68.50;;;33.88;;
23826;SDS011;12094;50.822;4.376;2023-02-15T04:15:08;66.70;;;35.42;;
23826;SDS011;12094;50.822;4.376;2023-02-15T04:17:56;66.38;;;35.05;;
23826;SDS011;12094;50.822;4.376;2023-02-15T04:20:24;64.85;;;34.38;;
23826;SDS011;12094;50.822;4.376;2023-02-15T04:23:14;73.25;;;35.85;;
23826;SDS011;12094;50.822;4.376;2023-02-15T04:26:02;72.20;;;35.33;;
23826;SDS011;12094;50.822;4.376;2023-02-15T04:28:33;66.13;;;33.85;;
23826;SDS011;12094;50.822;4.376;2023-02-15T04:33:52;68.45;;;33.10;;
23826;SDS011;12094;50.822;4.376;2023-02-15T04:36:20;67.95;;;34.85;;
23826;SDS011;12094;50.822;4.376;2023-02-15T04:38:47;71.30;;;34.17;;
23826;SDS011;12094;50.822;4.376;2023-02-15T04:41:15;71.50;;;34.53;;
23826;SDS011;12094;50.822;4.376;2023-02-15T04:43:41;65.70;;;33.47;;
23826;SDS011;12094;50.822;4.376;2023-02-15T04:46:08;63.83;;;33.13;;
23826;SDS011;12094;50.822;4.376;2023-02-15T04:48:36;63.40;;;32.45;;
23826;SDS011;12094;50.822;4.376;2023-02-15T04:51:08;64.65;;;33.83;;
23826;SDS011;12094;50.822;4.376;2023-02-15T04:56:03;65.35;;;33.10;;
23826;SDS011;12094;50.822;4.376;2023-02-15T04:58:30;66.00;;;34.70;;
23826;SDS011;12094;50.822;4.376;2023-02-15T05:00:59;67.75;;;36.35;;
23826;SDS011;12094;50.822;4.376;2023-02-15T05:03:25;60.38;;;33.58;;
23826;SDS011;12094;50.822;4.376;2023-02-15T05:05:57;66.53;;;34.58;;
23826;SDS011;12094;50.822;4.376;2023-02-15T05:08:27;76.53;;;35.83;;
23826;SDS011;12094;50.822;4.376;2023-02-15T05:10:55;70.65;;;35.30;;
23826;SDS011;12094;50.822;4.376;2023-02-15T05:13:22;67.90;;;34.15;;
23826;SDS011;12094;50.822;4.376;2023-02-15T05:15:51;71.35;;;35.95;;
23826;SDS011;12094;50.822;4.376;2023-02-15T05:18:19;69.15;;;34.38;;
23826;SDS011;12094;50.822;4.376;2023-02-15T05:20:48;69.95;;;36.40;;
23826;SDS011;12094;50.822;4.376;2023-02-15T05:23:16;70.28;;;34.63;;
23826;SDS011;12094;50.822;4.376;2023-02-15T05:25:50;68.90;;;36.55;;
23826;SDS011;12094;50.822;4.376;2023-02-15T05:28:37;70.70;;;35.00;;
23826;SDS011;12094;50.822;4.376;2023-02-15T05:33:32;67.72;;;36.58;;
23826;SDS011;12094;50.822;4.376;2023-02-15T05:36:00;69.13;;;35.50;;
23826;SDS011;12094;50.822;4.376;2023-02-15T05:38:28;69.63;;;35.67;;
23826;SDS011;12094;50.822;4.376;2023-02-15T05:40:56;63.53;;;34.15;;
23826;SDS011;12094;50.822;4.376;2023-02-15T05:43:24;74.85;;;36.20;;
23826;SDS011;12094;50.822;4.376;2023-02-15T05:45:52;74.78;;;35.30;;
23826;SDS011;12094;50.822;4.376;2023-02-15T05:48:23;71.05;;;35.58;;
23826;SDS011;12094;50.822;4.376;2023-02-15T05:51:10;69.28;;;34.65;;
23826;SDS011;12094;50.822;4.376;2023-02-15T05:53:42;66.47;;;34.67;;
23826;SDS011;12094;50.822;4.376;2023-02-15T05:56:11;69.88;;;35.28;;
23826;SDS011;12094;50.822;4.376;2023-02-15T05:58:39;68.15;;;36.30;;
23826;SDS011;12094;50.822;4.376;2023-02-15T06:01:17;71.95;;;34.38;;
23826;SDS011;12094;50.822;4.376;2023-02-15T06:03:45;73.40;;;34.55;;
23826;SDS011;12094;50.822;4.376;2023-02-15T06:06:14;75.03;;;34.30;;
23826;SDS011;12094;50.822;4.376;2023-02-15T06:08:43;82.50;;;35.45;;
23826;SDS011;12094;50.822;4.376;2023-02-15T06:11:10;67.88;;;33.20;;
23826;SDS011;12094;50.822;4.376;2023-02-15T06:13:39;63.35;;;31.55;;
23826;SDS011;12094;50.822;4.376;2023-02-15T06:16:07;66.90;;;33.13;;
23826;SDS011;12094;50.822;4.376;2023-02-15T06:18:35;62.80;;;32.83;;
23826;SDS011;12094;50.822;4.376;2023-02-15T06:21:03;73.00;;;34.83;;
23826;SDS011;12094;50.822;4.376;2023-02-15T06:23:30;68.45;;;31.67;;
23826;SDS011;12094;50.822;4.376;2023-02-15T06:25:57;62.65;;;30.90;;
23826;SDS011;12094;50.822;4.376;2023-02-15T06:28:24;71.65;;;32.72;;
23826;SDS011;12094;50.822;4.376;2023-02-15T06:30:54;59.60;;;31.55;;
23826;SDS011;12094;50.822;4.376;2023-02-15T06:33:21;61.50;;;31.08;;
23826;SDS011;12094;50.822;4.376;2023-02-15T06:35:49;66.22;;;31.17;;
23826;SDS011;12094;50.822;4.376;2023-02-15T06:38:16;63.22;;;30.80;;
23826;SDS011;12094;50.822;4.376;2023-02-15T06:40:44;64.80;;;31.17;;
23826;SDS011;12094;50.822;4.376;2023-02-15T06:43:11;57.33;;;30.35;;
23826;SDS011;12094;50.822;4.376;2023-02-15T06:45:41;67.82;;;32.22;;
23826;SDS011;12094;50.822;4.376;2023-02-15T06:48:08;64.25;;;31.35;;
23826;SDS011;12094;50.822;4.376;2023-02-15T06:50:38;63.75;;;30.40;;
23826;SDS011;12094;50.822;4.376;2023-02-15T06:53:12;64.68;;;31.60;;
23826;SDS011;12094;50.822;4.376;2023-02-15T06:55:42;62.83;;;31.15;;
23826;SDS011;12094;50.822;4.376;2023-02-15T06:58:09;72.30;;;31.65;;
23826;SDS011;12094;50.822;4.376;2023-02-15T07:00:36;64.85;;;32.00;;
23826;SDS011;12094;50.822;4.376;2023-02-15T07:03:08;65.40;;;32.50;;
23826;SDS011;12094;50.822;4.376;2023-02-15T07:05:35;63.88;;;31.10;;
23826;SDS011;12094;50.822;4.376;2023-02-15T07:08:18;61.03;;;29.33;;
23826;SDS011;12094;50.822;4.376;2023-02-15T07:10:51;64.45;;;30.77;;
23826;SDS011;12094;50.822;4.376;2023-02-15T07:13:19;63.00;;;29.60;;
23826;SDS011;12094;50.822;4.376;2023-02-15T07:15:48;66.63;;;31.20;;
23826;SDS011;12094;50.822;4.376;2023-02-15T07:18:15;64.32;;;29.55;;
23826;SDS011;12094;50.822;4.376;2023-02-15T07:20:42;64.78;;;30.90;;
23826;SDS011;12094;50.822;4.376;2023-02-15T07:23:10;74.80;;;34.03;;
23826;SDS011;12094;50.822;4.376;2023-02-15T07:25:37;64.03;;;30.98;;
23826;SDS011;12094;50.822;4.376;2023-02-15T07:28:05;66.35;;;30.80;;
23826;SDS011;12094;50.822;4.376;2023-02-15T07:30:33;63.88;;;30.05;;
23826;SDS011;12094;50.822;4.376;2023-02-15T07:33:04;63.83;;;30.25;;
23826;SDS011;12094;50.822;4.376;2023-02-15T07:35:53;64.97;;;29.70;;
23826;SDS011;12094;50.822;4.376;2023-02-15T07:38:30;67.03;;;31.42;;
23826;SDS011;12094;50.822;4.376;2023-02-15T07:40:59;63.03;;;31.67;;
23826;SDS011;12094;50.822;4.376;2023-02-15T07:43:27;64.43;;;30.67;;
23826;SDS011;12094;50.822;4.376;2023-02-15T07:46:00;64.43;;;31.27;;
23826;SDS011;12094;50.822;4.376;2023-02-15T07:48:32;63.55;;;29.25;;
23826;SDS011;12094;50.822;4.376;2023-02-15T07:51:05;69.57;;;30.95;;
23826;SDS011;12094;50.822;4.376;2023-02-15T07:53:42;63.80;;;30.60;;
23826;SDS011;12094;50.822;4.376;2023-02-15T07:56:12;69.40;;;30.02;;
23826;SDS011;12094;50.822;4.376;2023-02-15T07:58:41;62.72;;;29.30;;
23826;SDS011;12094;50.822;4.376;2023-02-15T08:01:25;62.33;;;27.00;;
23826;SDS011;12094;50.822;4.376;2023-02-15T08:03:58;55.53;;;26.83;;
23826;SDS011;12094;50.822;4.376;2023-02-15T08:06:31;56.40;;;27.08;;
23826;SDS011;12094;50.822;4.376;2023-02-15T08:15:13;53.42;;;22.42;;
23826;SDS011;12094;50.822;4.376;2023-02-15T08:17:40;52.42;;;22.15;;
23826;SDS011;12094;50.822;4.376;2023-02-15T08:20:15;48.40;;;22.55;;
23826;SDS011;12094;50.822;4.376;2023-02-15T08:22:42;53.42;;;24.48;;
23826;SDS011;12094;50.822;4.376;2023-02-15T08:25:13;52.03;;;23.92;;
23826;SDS011;12094;50.822;4.376;2023-02-15T08:27:40;47.60;;;20.33;;
23826;SDS011;12094;50.822;4.376;2023-02-15T08:30:10;55.30;;;23.30;;
23826;SDS011;12094;50.822;4.376;2023-02-15T08:35:31;55.38;;;24.20;;
23826;SDS011;12094;50.822;4.376;2023-02-15T08:38:14;51.40;;;24.05;;
23826;SDS011;12094;50.822;4.376;2023-02-15T08:40:42;54.35;;;25.67;;
23826;SDS011;12094;50.822;4.376;2023-02-15T08:43:10;51.17;;;22.42;;
23826;SDS011;12094;50.822;4.376;2023-02-15T08:45:38;49.78;;;23.02;;
23826;SDS011;12094;50.822;4.376;2023-02-15T08:48:12;48.40;;;23.35;;
23826;SDS011;12094;50.822;4.376;2023-02-15T08:50:41;49.15;;;23.60;;
23826;SDS011;12094;50.822;4.376;2023-02-15T08:53:10;50.58;;;21.45;;
23826;SDS011;12094;50.822;4.376;2023-02-15T08:55:38;57.00;;;23.92;;
23826;SDS011;12094;50.822;4.376;2023-02-15T08:58:06;50.50;;;22.35;;
23826;SDS011;12094;50.822;4.376;2023-02-15T09:00:34;46.03;;;21.98;;
23826;SDS011;12094;50.822;4.376;2023-02-15T09:03:11;47.03;;;21.58;;
23826;SDS011;12094;50.822;4.376;2023-02-15T09:05:41;54.05;;;22.77;;
23826;SDS011;12094;50.822;4.376;2023-02-15T09:08:11;50.05;;;24.13;;
23826;SDS011;12094;50.822;4.376;2023-02-15T09:10:38;46.80;;;23.55;;
23826;SDS011;12094;50.822;4.376;2023-02-15T09:20:06;53.03;;;23.83;;
23826;SDS011;12094;50.822;4.376;2023-02-15T09:26:15;51.08;;;21.85;;
23826;SDS011;12094;50.822;4.376;2023-02-15T09:28:46;45.47;;;19.08;;
23826;SDS011;12094;50.822;4.376;2023-02-15T09:31:20;51.63;;;24.83;;
23826;SDS011;12094;50.822;4.376;2023-02-15T09:33:52;45.42;;;20.58;;
23826;SDS011;12094;50.822;4.376;2023-02-15T09:36:29;57.15;;;24.50;;
23826;SDS011;12094;50.822;4.376;2023-02-15T09:39:10;56.97;;;24.70;;
23826;SDS011;12094;50.822;4.376;2023-02-15T09:53:00;50.15;;;24.98;;
23826;SDS011;12094;50.822;4.376;2023-02-15T10:04:20;48.22;;;23.30;;
23826;SDS011;12094;50.822;4.376;2023-02-15T10:18:34;47.42;;;23.85;;
23826;SDS011;12094;50.822;4.376;2023-02-15T10:26:47;56.83;;;25.90;;
23826;SDS011;12094;50.822;4.376;2023-02-15T10:31:48;57.88;;;25.35;;
23826;SDS011;12094;50.822;4.376;2023-02-15T10:35:00;56.70;;;26.00;;
23826;SDS011;12094;50.822;4.376;2023-02-15T10:40:49;60.15;;;27.27;;
23826;SDS011;12094;50.822;4.376;2023-02-15T10:55:19;62.35;;;28.33;;
23826;SDS011;12094;50.822;4.376;2023-02-15T11:01:22;54.50;;;26.77;;
23826;SDS011;12094;50.822;4.376;2023-02-15T11:06:56;47.72;;;24.30;;
23826;SDS011;12094;50.822;4.376;2023-02-15T11:12:42;54.33;;;26.80;;
23826;SDS011;12094;50.822;4.376;2023-02-15T11:15:32;48.15;;;26.63;;
23826;SDS011;12094;50.822;4.376;2023-02-15T11:18:46;55.65;;;27.17;;
23826;SDS011;12094;50.822;4.376;2023-02-15T11:21:20;49.88;;;25.55;;
23826;SDS011;12094;50.822;4.376;2023-02-15T11:23:52;48.25;;;25.98;;
23826;SDS011;12094;50.822;4.376;2023-02-15T11:31:56;52.40;;;26.37;;
23826;SDS011;12094;50.822;4.376;2023-02-15T11:34:36;51.45;;;27.25;;
23826;SDS011;12094;50.822;4.376;2023-02-15T11:37:10;60.55;;;27.20;;
23826;SDS011;12094;50.822;4.376;2023-02-15T11:39:41;55.67;;;27.90;;
23826;SDS011;12094;50.822;4.376;2023-02-15T11:42:18;60.70;;;28.17;;
23826;SDS011;12094;50.822;4.376;2023-02-15T11:45:14;52.33;;;28.95;;
23826;SDS011;12094;50.822;4.376;2023-02-15T11:47:59;51.28;;;27.15;;
23826;SDS011;12094;50.822;4.376;2023-02-15T11:50:28;58.15;;;28.33;;
23826;SDS011;12094;50.822;4.376;2023-02-15T11:53:00;50.30;;;27.88;;
23826;SDS011;12094;50.822;4.376;2023-02-15T11:55:30;59.38;;;29.98;;
23826;SDS011;12094;50.822;4.376;2023-02-15T11:58:01;52.53;;;29.08;;
23826;SDS011;12094;50.822;4.376;2023-02-15T12:11:52;56.83;;;28.88;;
23826;SDS011;12094;50.822;4.376;2023-02-15T12:14:20;55.13;;;30.30;;
23826;SDS011;12094;50.822;4.376;2023-02-15T12:16:51;55.05;;;30.00;;
23826;SDS011;12094;50.822;4.376;2023-02-15T12:22:52;60.42;;;28.25;;
23826;SDS011;12094;50.822;4.376;2023-02-15T12:28:23;60.22;;;31.48;;
23826;SDS011;12094;50.822;4.376;2023-02-15T12:31:09;57.55;;;31.45;;
23826;SDS011;12094;50.822;4.376;2023-02-15T12:34:41;63.10;;;32.40;;
23826;SDS011;12094;50.822;4.376;2023-02-15T12:37:14;65.50;;;32.92;;
23826;SDS011;12094;50.822;4.376;2023-02-15T12:42:21;59.22;;;31.65;;
23826;SDS011;12094;50.822;4.376;2023-02-15T12:45:00;57.30;;;31.05;;
23826;SDS011;12094;50.822;4.376;2023-02-15T12:47:33;62.35;;;32.13;;
23826;SDS011;12094;50.822;4.376;2023-02-15T12:50:08;62.60;;;33.47;;
23826;SDS011;12094;50.822;4.376;2023-02-15T12:52:44;59.15;;;32.47;;
23826;SDS011;12094;50.822;4.376;2023-02-15T12:55:23;58.58;;;32.40;;
23826;SDS011;12094;50.822;4.376;2023-02-15T13:03:59;55.50;;;32.40;;
23826;SDS011;12094;50.822;4.376;2023-02-15T13:06:33;55.45;;;32.63;;
23826;SDS011;12094;50.822;4.376;2023-02-15T13:09:06;54.10;;;31.70;;
23826;SDS011;12094;50.822;4.376;2023-02-15T13:18:44;53.63;;;30.15;;
23826;SDS011;12094;50.822;4.376;2023-02-15T13:21:18;54.72;;;31.23;;
23826;SDS011;12094;50.822;4.376;2023-02-15T13:23:56;55.70;;;31.48;;
23826;SDS011;12094;50.822;4.376;2023-02-15T13:26:30;59.53;;;28.92;;
23826;SDS011;12094;50.822;4.376;2023-02-15T13:28:59;53.58;;;30.70;;
23826;SDS011;12094;50.822;4.376;2023-02-15T13:31:34;52.88;;;30.27;;
23826;SDS011;12094;50.822;4.376;2023-02-15T13:34:20;59.17;;;31.98;;
23826;SDS011;12094;50.822;4.376;2023-02-15T14:17:56;80.07;;;38.35;;
23826;SDS011;12094;50.822;4.376;2023-02-15T14:20:39;76.97;;;37.92;;
23826;SDS011;12094;50.822;4.376;2023-02-15T14:35:12;73.75;;;38.92;;
23826;SDS011;12094;50.822;4.376;2023-02-15T14:54:52;81.47;;;42.03;;
23826;SDS011;12094;50.822;4.376;2023-02-15T15:02:27;71.43;;;37.03;;
23826;SDS011;12094;50.822;4.376;2023-02-15T15:08:22;93.35;;;41.78;;
23826;SDS011;12094;50.822;4.376;2023-02-15T15:14:35;81.10;;;41.42;;
23826;SDS011;12094;50.822;4.376;2023-02-15T15:17:06;79.55;;;39.58;;
23826;SDS011;12094;50.822;4.376;2023-02-15T15:22:27;76.55;;;39.60;;
23826;SDS011;12094;50.822;4.376;2023-02-15T15:28:07;71.40;;;39.85;;
23826;SDS011;12094;50.822;4.376;2023-02-15T15:33:25;78.10;;;40.83;;
23826;SDS011;12094;50.822;4.376;2023-02-15T15:36:19;74.40;;;39.92;;
23826;SDS011;12094;50.822;4.376;2023-02-15T15:42:06;74.22;;;40.88;;
23826;SDS011;12094;50.822;4.376;2023-02-15T15:56:29;79.05;;;41.05;;
23826;SDS011;12094;50.822;4.376;2023-02-15T15:59:05;78.40;;;41.90;;
23826;SDS011;12094;50.822;4.376;2023-02-15T16:01:46;83.93;;;43.33;;
23826;SDS011;12094;50.822;4.376;2023-02-15T16:04:26;81.72;;;42.70;;
23826;SDS011;12094;50.822;4.376;2023-02-15T16:06:56;80.00;;;42.15;;
23826;SDS011;12094;50.822;4.376;2023-02-15T16:09:26;77.13;;;41.20;;
23826;SDS011;12094;50.822;4.376;2023-02-15T16:11:57;86.03;;;40.67;;
23826;SDS011;12094;50.822;4.376;2023-02-15T16:14:38;73.45;;;40.83;;
23826;SDS011;12094;50.822;4.376;2023-02-15T16:17:08;75.80;;;40.42;;
23826;SDS011;12094;50.822;4.376;2023-02-15T16:19:44;89.57;;;39.92;;
23826;SDS011;12094;50.822;4.376;2023-02-15T16:22:21;81.05;;;41.55;;
23826;SDS011;12094;50.822;4.376;2023-02-15T16:29:58;69.20;;;39.47;;
23826;SDS011;12094;50.822;4.376;2023-02-15T16:32:45;75.65;;;39.45;;
23826;SDS011;12094;50.822;4.376;2023-02-15T16:35:17;80.75;;;40.78;;
23826;SDS011;12094;50.822;4.376;2023-02-15T16:37:50;76.10;;;40.58;;
23826;SDS011;12094;50.822;4.376;2023-02-15T16:43:00;73.90;;;40.67;;
23826;SDS011;12094;50.822;4.376;2023-02-15T16:48:21;79.32;;;39.63;;
23826;SDS011;12094;50.822;4.376;2023-02-15T16:50:57;76.70;;;39.75;;
23826;SDS011;12094;50.822;4.376;2023-02-15T16:53:28;80.78;;;40.30;;
23826;SDS011;12094;50.822;4.376;2023-02-15T16:56:01;76.32;;;39.72;;
23826;SDS011;12094;50.822;4.376;2023-02-15T16:58:53;75.18;;;38.42;;
23826;SDS011;12094;50.822;4.376;2023-02-15T17:01:31;73.20;;;39.35;;
23826;SDS011;12094;50.822;4.376;2023-02-15T17:04:11;74.93;;;40.45;;
23826;SDS011;12094;50.822;4.376;2023-02-15T17:07:16;79.13;;;40.45;;
23826;SDS011;12094;50.822;4.376;2023-02-15T17:09:55;81.13;;;41.92;;
23826;SDS011;12094;50.822;4.376;2023-02-15T17:18:03;83.32;;;40.05;;
23826;SDS011;12094;50.822;4.376;2023-02-15T17:20:37;76.75;;;36.72;;
23826;SDS011;12094;50.822;4.376;2023-02-15T17:23:52;76.75;;;40.92;;
23826;SDS011;12094;50.822;4.376;2023-02-15T17:26:10;79.22;;;42.75;;
23826;SDS011;12094;50.822;4.376;2023-02-15T17:28:48;82.13;;;43.47;;
23826;SDS011;12094;50.822;4.376;2023-02-15T17:31:24;81.90;;;41.15;;
23826;SDS011;12094;50.822;4.376;2023-02-15T17:33:58;78.35;;;40.92;;
23826;SDS011;12094;50.822;4.376;2023-02-15T17:36:30;79.82;;;41.83;;
23826;SDS011;12094;50.822;4.376;2023-02-15T17:41:44;84.10;;;43.13;;
23826;SDS011;12094;50.822;4.376;2023-02-15T17:44:13;83.20;;;40.60;;
23826;SDS011;12094;50.822;4.376;2023-02-15T17:46:42;77.10;;;41.30;;
23826;SDS011;12094;50.822;4.376;2023-02-15T17:49:14;73.35;;;40.17;;
23826;SDS011;12094;50.822;4.376;2023-02-15T17:51:56;73.93;;;38.63;;
23826;SDS011;12094;50.822;4.376;2023-02-15T17:54:24;76.35;;;38.70;;
23826;SDS011;12094;50.822;4.376;2023-02-15T18:00:07;79.93;;;41.35;;
23826;SDS011;12094;50.822;4.376;2023-02-15T18:03:04;73.07;;;37.67;;
23826;SDS011;12094;50.822;4.376;2023-02-15T18:05:54;72.53;;;38.38;;
23826;SDS011;12094;50.822;4.376;2023-02-15T18:11:50;68.47;;;34.53;;
23826;SDS011;12094;50.822;4.376;2023-02-15T18:14:18;69.80;;;37.60;;
23826;SDS011;12094;50.822;4.376;2023-02-15T18:16:45;76.30;;;37.03;;
23826;SDS011;12094;50.822;4.376;2023-02-15T18:19:31;74.80;;;39.67;;
23826;SDS011;12094;50.822;4.376;2023-02-15T18:21:59;83.95;;;40.95;;
23826;SDS011;12094;50.822;4.376;2023-02-15T18:24:26;72.60;;;40.08;;
23826;SDS011;12094;50.822;4.376;2023-02-15T18:26:57;77.80;;;40.42;;
23826;SDS011;12094;50.822;4.376;2023-02-15T18:29:26;73.40;;;40.00;;
23826;SDS011;12094;50.822;4.376;2023-02-15T18:31:55;83.15;;;41.67;;
23826;SDS011;12094;50.822;4.376;2023-02-15T18:34:27;73.15;;;39.00;;
23826;SDS011;12094;50.822;4.376;2023-02-15T18:37:02;76.10;;;41.22;;
23826;SDS011;12094;50.822;4.376;2023-02-15T18:39:54;74.22;;;41.55;;
23826;SDS011;12094;50.822;4.376;2023-02-15T18:45:43;70.28;;;39.30;;
23826;SDS011;12094;50.822;4.376;2023-02-15T18:48:14;77.28;;;41.38;;
23826;SDS011;12094;50.822;4.376;2023-02-15T18:50:50;75.93;;;41.83;;
23826;SDS011;12094;50.822;4.376;2023-02-15T18:53:18;83.30;;;42.50;;
23826;SDS011;12094;50.822;4.376;2023-02-15T18:55:46;77.47;;;41.72;;
23826;SDS011;12094;50.822;4.376;2023-02-15T18:58:18;77.22;;;42.40;;
23826;SDS011;12094;50.822;4.376;2023-02-15T19:03:20;79.72;;;40.78;;
23826;SDS011;12094;50.822;4.376;2023-02-15T19:05:48;77.20;;;40.70;;
23826;SDS011;12094;50.822;4.376;2023-02-15T19:08:30;79.03;;;40.60;;
23826;SDS011;12094;50.822;4.376;2023-02-15T19:10:58;80.22;;;42.60;;
23826;SDS011;12094;50.822;4.376;2023-02-15T19:13:27;75.00;;;42.03;;
23826;SDS011;12094;50.822;4.376;2023-02-15T19:15:57;83.82;;;40.15;;
23826;SDS011;12094;50.822;4.376;2023-02-15T19:18:26;76.63;;;40.03;;
23826;SDS011;12094;50.822;4.376;2023-02-15T19:20:54;74.78;;;38.20;;
23826;SDS011;12094;50.822;4.376;2023-02-15T19:23:26;76.40;;;40.08;;
23826;SDS011;12094;50.822;4.376;2023-02-15T19:26:12;81.73;;;39.90;;
23826;SDS011;12094;50.822;4.376;2023-02-15T19:28:43;72.63;;;38.78;;
23826;SDS011;12094;50.822;4.376;2023-02-15T19:34:14;76.13;;;38.13;;
23826;SDS011;12094;50.822;4.376;2023-02-15T19:36:43;76.93;;;39.75;;
23826;SDS011;12094;50.822;4.376;2023-02-15T19:39:25;73.50;;;40.38;;
23826;SDS011;12094;50.822;4.376;2023-02-15T19:42:01;73.30;;;39.83;;
23826;SDS011;12094;50.822;4.376;2023-02-15T19:44:30;83.40;;;40.58;;
23826;SDS011;12094;50.822;4.376;2023-02-15T19:46:58;73.70;;;39.55;;